Aeroporto :
LOGIN :

Iscrizione | Disclaimer

   EN    FR    IT 

 










Sommario :    VFR   VFR Marginale   IFR   IFR Intensivo   IFR Molto Intensivo
Visibilità : 
Base nubi : 
>= 8 km
>= 3000ft
5 / 8 km
1000 / 3000 ft
1500m / 5 km
500 / 1000 ft
800 / 1500m
200 / 500 ft
< 800m
< 200 ft
Simboli :   Temporali  Nebbia  Neve Forte  Precipitazioni Forti  Vento > 20 kt
SIGMETs :   Varie  Temporali  Ghiacco  Turbolenza  Onda orograficha  Ceneri Vulcaniche







- Altitudine del aeroporto : 36 ft
- Codice IATA : LTQ
- Carte del aeroporto


LFAT - Le Touquet

ULTIMO METAR :
  • 161530Z AUTO 29004KT 250V320 9999 FEW033 OVC060 19/16 Q1021 TEMPO 4000 -RA BKN008

METARs OBSOLETI :
  • 161500Z AUTO 27005KT 220V320 CAVOK 19/16 Q1021 TEMPO 4000 -RA BKN008
  • 161430Z AUTO 28006KT 240V330 9999 SCT011 BKN068 BKN078 19/16 Q1021 TEMPO 4000 -RA BKN008
  • 161400Z AUTO 31007KT 280V340 8000 BKN010 20/16 Q1021 NOSIG
  • 161330Z AUTO 30006KT 260V330 9999 OVC010 19/16 Q1021 NOSIG
  • 161300Z AUTO 31007KT 9999 OVC010 19/17 Q1021 NOSIG

TAF AMD TAF LFAT
Valido dal 16 a 15 ore il 17 a 00 ore UTC


161541Z 1615/1624 30007KT 9999 BKN025
BECMG 1615/1618 36008KT BKN012 BKN025
TEMPO 1616/1624 4000 -RA BKN008
ATIS : +33 3 21 06 62 84
Nessun NOTAM noto per questo aeroporto.



MetMap, La meteo Aeronautica in un colpo d'occhio ! - Copyright ORBIFLY Dicembre 2007 - Disclaimer

ORBIFLY MET'MAP TEAM :

Programmazione e sviluppo : Alexandra Zaïnal
Concezione e sviluppo : Baudouin d'Aumeries
Co-Programmazione e sviluppo : Marc-Olivier Méhu
Supporto tecnico e logistico : Manuel Goepfert
Aiuto per la traduzione : Arnaldo La Scala

Contatto : metmap@orbifly.com




FONTI E CREDITI :

   NOAA